createdAt,value
2022-08-25T00:02:59.459Z,100378.16
2022-08-25T00:06:06.597Z,100382.56
2022-08-25T00:09:11.268Z,100375.94
2022-08-25T00:12:15.396Z,100377.97
2022-08-25T00:15:18.190Z,100373.38
2022-08-25T00:18:21.200Z,100363.78
2022-08-25T00:21:25.628Z,100366.19
2022-08-25T00:24:29.373Z,100363.47
2022-08-25T00:27:32.304Z,100369.84
2022-08-25T00:30:37.105Z,100368.03
2022-08-25T00:33:39.759Z,100372.13
2022-08-25T00:36:44.784Z,100361.66
2022-08-25T00:39:48.778Z,100349.88
2022-08-25T00:42:51.871Z,100363.19
2022-08-25T00:45:55.436Z,100358.53
2022-08-25T00:49:11.868Z,100361.41
2022-08-25T00:52:31.717Z,100363.41
2022-08-25T00:55:39.502Z,100365.31
2022-08-25T00:58:43.288Z,100367.47
2022-08-25T01:01:50.305Z,100361.66
2022-08-25T01:04:55.536Z,100369.28
2022-08-25T01:08:03.273Z,100361.12
2022-08-25T01:11:11.530Z,100361.81
2022-08-25T01:14:17.346Z,100369.94
2022-08-25T01:17:24.814Z,100364.72
2022-08-25T01:20:30.685Z,100367.66
2022-08-25T01:23:33.860Z,100363.56
2022-08-25T01:26:38.132Z,100364.62
2022-08-25T01:29:41.969Z,100364.06
2022-08-25T01:32:46.128Z,100358.91
2022-08-25T01:35:49.026Z,100361.25
2022-08-25T01:38:53.389Z,100355.72
2022-08-25T01:42:06.564Z,100357.34
2022-08-25T01:45:10.576Z,100365.16
2022-08-25T01:48:14.954Z,100362.63
2022-08-25T01:51:20.696Z,100364.06
2022-08-25T01:54:23.976Z,100357.16
2022-08-25T01:57:30.274Z,100354.44
2022-08-25T02:00:33.000Z,100358.72
2022-08-25T02:03:42.332Z,100349.59
2022-08-25T02:06:45.370Z,100353.72
2022-08-25T02:09:48.492Z,100346.09
2022-08-25T02:12:51.280Z,100355.63
2022-08-25T02:16:00.454Z,100343.72
2022-08-25T02:19:05.453Z,100346.00
2022-08-25T02:22:08.661Z,100344.47
2022-08-25T02:25:12.672Z,100352.44
2022-08-25T02:28:15.879Z,100349.81
2022-08-25T02:31:20.807Z,100349.13
2022-08-25T02:34:24.019Z,100349.44
2022-08-25T02:37:26.671Z,100353.47
2022-08-25T02:40:30.292Z,100348.06
2022-08-25T02:43:33.378Z,100349.22
2022-08-25T02:46:37.687Z,100347.78
2022-08-25T02:49:40.285Z,100346.06
2022-08-25T02:52:45.121Z,100349.50
2022-08-25T02:55:48.128Z,100351.34
2022-08-25T02:58:52.311Z,100349.75
2022-08-25T03:01:56.357Z,100348.53
2022-08-25T03:04:59.292Z,100341.44
2022-08-25T03:08:02.224Z,100346.31
2022-08-25T03:11:06.090Z,100352.34
2022-08-25T03:14:11.122Z,100343.53
2022-08-25T03:17:14.512Z,100343.62
2022-08-25T03:20:17.878Z,100348.16
2022-08-25T03:23:20.998Z,100350.28
2022-08-25T03:26:42.298Z,100361.81
2022-08-25T03:29:46.246Z,100350.22
2022-08-25T03:32:48.980Z,100342.31
2022-08-25T03:35:52.093Z,100349.00
2022-08-25T03:38:55.558Z,100346.72
2022-08-25T03:41:58.537Z,100346.59
2022-08-25T03:45:04.483Z,100341.97
2022-08-25T03:48:07.424Z,100346.50
2022-08-25T03:51:11.245Z,100351.72
2022-08-25T03:54:16.575Z,100352.06
2022-08-25T03:57:20.827Z,100342.69
2022-08-25T04:00:23.854Z,100345.13
2022-08-25T04:03:27.887Z,100350.81
2022-08-25T04:06:30.826Z,100346.03
2022-08-25T04:09:36.818Z,100349.94
2022-08-25T04:12:39.765Z,100348.97
2022-08-25T04:15:44.164Z,100347.88
2022-08-25T04:18:49.569Z,100348.50
2022-08-25T04:21:56.616Z,100349.16
2022-08-25T04:25:00.175Z,100343.62
2022-08-25T04:28:03.392Z,100348.00
2022-08-25T04:31:08.122Z,100347.91
2022-08-25T04:34:14.807Z,100345.75
2022-08-25T04:37:33.560Z,100347.38
2022-08-25T04:40:36.602Z,100347.12
2022-08-25T04:43:41.115Z,100344.41
2022-08-25T04:46:46.269Z,100346.00
2022-08-25T04:49:48.963Z,100338.84
2022-08-25T04:52:52.140Z,100345.37
2022-08-25T04:55:59.582Z,100353.91
2022-08-25T04:59:10.102Z,100351.94
2022-08-25T05:02:13.887Z,100354.28
2022-08-25T05:05:16.996Z,100353.44
2022-08-25T05:08:19.660Z,100359.41
2022-08-25T05:11:24.008Z,100345.25
2022-08-25T05:14:26.865Z,100346.19
2022-08-25T05:17:29.960Z,100357.44
2022-08-25T05:20:32.749Z,100348.53
2022-08-25T05:23:36.376Z,100345.25
2022-08-25T05:26:40.106Z,100342.44
2022-08-25T05:29:43.161Z,100345.94
2022-08-25T05:32:45.903Z,100351.91
2022-08-25T05:35:48.985Z,100349.50
2022-08-25T05:38:54.222Z,100347.00
2022-08-25T05:41:57.119Z,100349.56
2022-08-25T05:44:59.908Z,100357.25
2022-08-25T05:48:03.565Z,100357.31
2022-08-25T05:51:10.402Z,100355.25
2022-08-25T05:54:15.859Z,100360.56
2022-08-25T05:57:18.502Z,100353.56
2022-08-25T06:00:21.670Z,100353.03
2022-08-25T06:03:24.716Z,100352.69
2022-08-25T06:06:27.523Z,100358.66
2022-08-25T06:09:30.503Z,100355.41
2022-08-25T06:12:34.621Z,100353.78
2022-08-25T06:15:37.795Z,100350.66
2022-08-25T06:18:40.665Z,100357.09
2022-08-25T06:21:44.639Z,100358.78
2022-08-25T06:24:48.105Z,100361.97
2022-08-25T06:27:52.316Z,100368.06
2022-08-25T06:31:00.246Z,100371.97
2022-08-25T06:34:03.368Z,100362.59
2022-08-25T06:37:06.004Z,100365.16
2022-08-25T06:40:11.115Z,100371.00
2022-08-25T06:43:13.929Z,100380.31
2022-08-25T06:46:35.620Z,100374.97
2022-08-25T06:49:39.312Z,100380.66
2022-08-25T06:52:43.309Z,100380.50
2022-08-25T06:55:56.569Z,100390.88
2022-08-25T06:59:01.493Z,100381.38
2022-08-25T07:02:06.116Z,100373.34
2022-08-25T07:05:13.245Z,100379.00
2022-08-25T07:08:17.534Z,100374.59
2022-08-25T07:11:21.693Z,100378.06
2022-08-25T07:14:24.871Z,100366.56
2022-08-25T07:17:29.092Z,100376.13
2022-08-25T07:20:31.849Z,100380.09
2022-08-25T07:23:35.314Z,100381.50
2022-08-25T07:26:40.682Z,100376.00
2022-08-25T07:29:43.766Z,100370.25
2022-08-25T07:32:46.626Z,100378.03
2022-08-25T07:35:58.557Z,100368.03
2022-08-25T07:39:08.364Z,100364.53
2022-08-25T07:42:13.760Z,100371.41
2022-08-25T07:45:20.559Z,100377.66
2022-08-25T07:48:25.891Z,100383.03
2022-08-25T07:51:29.130Z,100374.25
2022-08-25T07:54:34.177Z,100374.72
2022-08-25T07:57:40.688Z,100380.94
2022-08-25T08:00:48.716Z,100378.44
2022-08-25T08:03:53.935Z,100371.31
2022-08-25T08:06:58.002Z,100371.09
2022-08-25T08:10:36.967Z,100372.87
2022-08-25T08:13:26.968Z,100375.06
2022-08-25T08:16:31.809Z,100377.38
2022-08-25T08:19:36.718Z,100383.34
2022-08-25T08:22:42.664Z,100376.56
2022-08-25T08:25:46.773Z,100380.50
2022-08-25T08:28:52.094Z,100383.31
2022-08-25T08:31:55.366Z,100379.84
2022-08-25T08:34:58.471Z,100372.75
2022-08-25T08:38:06.933Z,100371.28
2022-08-25T08:42:11.188Z,100374.66
2022-08-25T08:45:40.233Z,100376.56
2022-08-25T08:48:55.998Z,100365.00
2022-08-25T08:52:02.710Z,100367.53
2022-08-25T08:55:28.597Z,100365.75
2022-08-25T08:58:41.719Z,100368.91
2022-08-25T09:01:52.609Z,100372.31
2022-08-25T09:05:03.588Z,100359.13
2022-08-25T09:08:12.921Z,100359.41
2022-08-25T09:11:45.668Z,100340.66
2022-08-25T09:15:17.392Z,100336.94
2022-08-25T09:18:20.048Z,100340.72
2022-08-25T09:22:02.400Z,100326.13
2022-08-25T09:25:54.073Z,100330.50
2022-08-25T09:29:16.257Z,100317.59
2022-08-25T09:32:24.217Z,100321.25
2022-08-25T09:35:37.502Z,100314.56
2022-08-25T09:38:40.694Z,100310.12
2022-08-25T09:41:56.971Z,100301.03
2022-08-25T09:45:02.006Z,100292.62
2022-08-25T09:48:22.094Z,100293.22
2022-08-25T09:51:37.821Z,100293.22
2022-08-25T09:54:44.233Z,100295.56
2022-08-25T09:57:55.316Z,100290.06
2022-08-25T10:01:13.408Z,100281.16
2022-08-25T10:04:28.349Z,100280.16
2022-08-25T10:07:39.886Z,100280.41
2022-08-25T10:10:53.389Z,100274.09
2022-08-25T10:14:27.883Z,100264.37
2022-08-25T10:17:33.749Z,100256.34
2022-08-25T10:20:36.434Z,100253.03
2022-08-25T10:23:55.967Z,100257.53
2022-08-25T10:27:32.418Z,100247.81
2022-08-25T10:30:47.663Z,100250.06
2022-08-25T10:34:18.077Z,100239.09
2022-08-25T10:38:00.586Z,100235.34
2022-08-25T10:41:12.235Z,100233.50
2022-08-25T10:44:42.683Z,100230.78
2022-08-25T10:48:00.622Z,100230.94
2022-08-25T10:51:25.438Z,100224.53
2022-08-25T10:54:57.897Z,100221.66
2022-08-25T10:58:07.391Z,100224.84
2022-08-25T11:01:28.871Z,100215.38
2022-08-25T11:04:53.175Z,100214.63
2022-08-25T11:08:15.679Z,100205.44
2022-08-25T11:11:37.401Z,100196.37
2022-08-25T11:14:46.841Z,100198.66
2022-08-25T11:17:58.616Z,100199.53
2022-08-25T11:21:14.956Z,100194.44
2022-08-25T11:24:29.947Z,100189.41
2022-08-25T11:27:44.508Z,100187.19
2022-08-25T11:30:48.464Z,100193.16
2022-08-25T11:33:51.934Z,100181.03
2022-08-25T11:37:01.375Z,100174.38
2022-08-25T11:40:38.638Z,100179.00
2022-08-25T11:44:30.644Z,100170.97
2022-08-25T11:47:39.318Z,100171.63
2022-08-25T11:51:08.366Z,100161.19
2022-08-25T11:54:36.662Z,100160.50
2022-08-25T11:57:40.860Z,100151.47
2022-08-25T12:00:44.719Z,100156.63
2022-08-25T12:03:51.223Z,100159.97
2022-08-25T12:07:13.821Z,100138.25
2022-08-25T12:10:21.632Z,100140.06
2022-08-25T12:13:41.173Z,100138.56
2022-08-25T12:17:17.479Z,100142.28
2022-08-25T12:21:01.531Z,100136.47
2022-08-25T12:24:11.883Z,100142.66
2022-08-25T12:27:44.162Z,100135.69
2022-08-25T12:30:57.427Z,100136.00
2022-08-25T12:34:03.607Z,100130.62
2022-08-25T12:37:17.218Z,100127.41
2022-08-25T12:40:30.312Z,100127.53
2022-08-25T12:43:45.030Z,100133.62
2022-08-25T12:47:05.807Z,100115.34
2022-08-25T12:50:35.209Z,100115.19
2022-08-25T12:53:54.575Z,100122.56
2022-08-25T12:57:02.858Z,100118.97
2022-08-25T13:00:45.947Z,100108.09
2022-08-25T13:04:14.591Z,100103.56
2022-08-25T13:07:23.751Z,100111.56
2022-08-25T13:10:52.970Z,100103.62
2022-08-25T13:14:41.419Z,100099.47
2022-08-25T13:17:48.414Z,100091.59
2022-08-25T13:21:08.139Z,100097.09
2022-08-25T13:24:21.681Z,100092.66
2022-08-25T13:27:28.424Z,100080.72
2022-08-25T13:30:34.804Z,100077.75
2022-08-25T13:33:37.751Z,100075.38
2022-08-25T13:37:06.433Z,100077.94
2022-08-25T13:40:18.953Z,100080.59
2022-08-25T13:43:27.624Z,100073.16
2022-08-25T13:46:31.911Z,100085.59
2022-08-25T13:49:40.681Z,100063.09
2022-08-25T13:52:51.533Z,100071.97
2022-08-25T13:55:59.165Z,100069.41
2022-08-25T13:59:09.972Z,100073.72
2022-08-25T14:02:15.224Z,100077.81
2022-08-25T14:05:43.234Z,100071.00
2022-08-25T14:09:03.640Z,100071.13
2022-08-25T14:12:07.987Z,100067.41
2022-08-25T14:15:18.134Z,100066.03
2022-08-25T14:18:33.427Z,100064.03
2022-08-25T14:21:36.222Z,100069.22
2022-08-25T14:24:45.192Z,100070.81
2022-08-25T14:28:07.345Z,100061.97
2022-08-25T14:31:25.882Z,100054.88
2022-08-25T14:34:38.632Z,100058.66
2022-08-25T14:37:42.711Z,100057.87
2022-08-25T14:40:46.680Z,100064.94
2022-08-25T14:43:52.585Z,100049.56
2022-08-25T14:46:56.921Z,100044.97
2022-08-25T14:50:02.037Z,100055.97
2022-08-25T14:53:05.579Z,100050.25
2022-08-25T14:56:10.516Z,100040.87
2022-08-25T14:59:13.631Z,100047.00
2022-08-25T15:02:20.986Z,100041.66
2022-08-25T15:05:28.395Z,100045.91
2022-08-25T15:08:50.487Z,100041.78
2022-08-25T15:11:56.249Z,100042.62
2022-08-25T15:15:01.803Z,100042.88
2022-08-25T15:18:05.614Z,100041.34
2022-08-25T15:21:09.332Z,100042.62
2022-08-25T15:24:12.924Z,100046.22
2022-08-25T15:27:22.197Z,100043.97
2022-08-25T15:30:31.244Z,100042.88
2022-08-25T15:33:34.404Z,100045.94
2022-08-25T15:36:37.629Z,100044.34
2022-08-25T15:39:45.027Z,100041.38
2022-08-25T15:42:47.755Z,100037.37
2022-08-25T15:45:50.988Z,100033.22
2022-08-25T15:51:57.302Z,100031.47
2022-08-25T15:55:00.427Z,100032.94
2022-08-25T15:58:03.506Z,100025.06
2022-08-25T16:01:09.422Z,100030.16
2022-08-25T16:04:14.725Z,100030.37
2022-08-25T16:07:17.937Z,100031.59
2022-08-25T16:10:23.825Z,100027.09
2022-08-25T16:13:28.248Z,100020.75
2022-08-25T16:16:32.118Z,100009.44
2022-08-25T16:19:35.794Z,100017.16
2022-08-25T16:22:45.019Z,100014.81
2022-08-25T16:25:48.394Z,100016.44
2022-08-25T16:28:51.544Z,100011.72
2022-08-25T16:31:55.211Z,100015.28
2022-08-25T16:35:00.969Z,100008.81
2022-08-25T16:38:04.769Z,100014.44
2022-08-25T16:41:09.920Z,100010.72
2022-08-25T16:44:14.569Z,100014.75
2022-08-25T16:47:20.355Z,100015.97
2022-08-25T16:50:30.539Z,100015.78
2022-08-25T16:53:56.565Z,100007.91
2022-08-25T16:56:59.303Z,100014.72
2022-08-25T17:00:02.705Z,100014.13
2022-08-25T17:03:06.170Z,100009.53
2022-08-25T17:06:09.507Z,100015.91
2022-08-25T17:09:14.230Z,100020.41
2022-08-25T17:12:26.887Z,100019.72
2022-08-25T17:15:29.634Z,100015.97
2022-08-25T17:18:36.310Z,100023.03
2022-08-25T17:21:45.326Z,100016.94
2022-08-25T17:24:59.268Z,100021.16
2022-08-25T17:28:04.424Z,100025.03
2022-08-25T17:31:09.949Z,100016.28
2022-08-25T17:34:16.536Z,100022.31
2022-08-25T17:37:19.826Z,100021.28
2022-08-25T17:40:23.488Z,100023.91
2022-08-25T17:43:31.489Z,100031.44
2022-08-25T17:46:34.218Z,100031.78
2022-08-25T17:49:37.500Z,100032.78
2022-08-25T17:52:40.239Z,100023.81
2022-08-25T17:55:44.112Z,100024.16
2022-08-25T17:58:47.597Z,100025.00
2022-08-25T18:01:55.355Z,100037.97
2022-08-25T18:04:58.703Z,100035.00
2022-08-25T18:08:01.305Z,100038.34
2022-08-25T18:11:06.662Z,100038.09
2022-08-25T18:14:11.629Z,100036.03
2022-08-25T18:17:14.629Z,100038.84
2022-08-25T18:20:27.251Z,100047.81
2022-08-25T18:23:30.382Z,100045.47
2022-08-25T18:26:33.901Z,100049.69
2022-08-25T18:29:37.082Z,100053.50
2022-08-25T18:32:39.899Z,100050.72
2022-08-25T18:35:44.182Z,100053.72
2022-08-25T18:39:05.405Z,100049.75
2022-08-25T18:42:08.672Z,100054.19
2022-08-25T18:45:12.450Z,100053.41
2022-08-25T18:48:17.897Z,100058.00
2022-08-25T18:51:23.162Z,100057.06
2022-08-25T18:54:26.503Z,100061.31
2022-08-25T18:57:29.647Z,100069.34
2022-08-25T19:00:34.102Z,100067.44
2022-08-25T19:03:37.295Z,100071.56
2022-08-25T19:06:40.472Z,100063.22
2022-08-25T19:09:46.594Z,100059.75
2022-08-25T19:12:57.648Z,100062.75
2022-08-25T19:16:09.488Z,100055.62
2022-08-25T19:19:13.937Z,100056.28
2022-08-25T19:22:40.246Z,100052.94
2022-08-25T19:25:41.724Z,100055.00
2022-08-25T19:28:48.577Z,100043.16
2022-08-25T19:31:52.061Z,100060.78
2022-08-25T19:34:57.230Z,100060.44
2022-08-25T19:38:01.244Z,100055.28
2022-08-25T19:41:10.626Z,100063.59
2022-08-25T19:44:18.038Z,100061.72
2022-08-25T19:47:21.214Z,100063.94
2022-08-25T19:50:24.714Z,100063.44
2022-08-25T19:53:27.747Z,100062.94
2022-08-25T19:56:32.894Z,100059.91
2022-08-25T19:59:42.853Z,100060.94
2022-08-25T20:02:47.523Z,100060.97
2022-08-25T20:05:52.369Z,100059.38
2022-08-25T20:08:58.946Z,100056.19
2022-08-25T20:12:06.517Z,100053.34
2022-08-25T20:15:10.182Z,100050.97
2022-08-25T20:18:13.322Z,100059.06
2022-08-25T20:21:16.140Z,100053.97
2022-08-25T20:24:37.751Z,100056.84
2022-08-25T20:27:50.108Z,100055.06
2022-08-25T20:30:55.464Z,100058.34
2022-08-25T20:34:00.981Z,100063.66
2022-08-25T20:37:06.201Z,100067.09
2022-08-25T20:40:11.474Z,100068.94
2022-08-25T20:43:14.525Z,100065.34
2022-08-25T20:46:19.191Z,100068.19
2022-08-25T20:49:22.338Z,100065.75
2022-08-25T20:52:25.397Z,100063.81
2022-08-25T20:55:30.347Z,100061.50
2022-08-25T20:58:34.059Z,100065.53
2022-08-25T21:01:41.373Z,100078.56
2022-08-25T21:04:50.284Z,100068.94
2022-08-25T21:07:53.556Z,100063.56
2022-08-25T21:10:56.186Z,100064.47
2022-08-25T21:13:59.328Z,100058.03
2022-08-25T21:17:02.501Z,100058.63
2022-08-25T21:20:08.450Z,100063.03
2022-08-25T21:23:11.212Z,100064.34
2022-08-25T21:26:16.806Z,100067.69
2022-08-25T21:29:22.006Z,100071.13
2022-08-25T21:32:25.106Z,100067.63
2022-08-25T21:35:27.845Z,100067.13
2022-08-25T21:38:33.332Z,100062.88
2022-08-25T21:41:40.491Z,100060.94
2022-08-25T21:44:43.564Z,100059.78
2022-08-25T21:47:46.252Z,100054.75
2022-08-25T21:50:49.624Z,100060.50
2022-08-25T21:54:10.005Z,100058.59
2022-08-25T21:57:13.195Z,100061.34
2022-08-25T22:00:17.538Z,100054.06
2022-08-25T22:03:24.322Z,100059.62
2022-08-25T22:06:27.042Z,100057.28
2022-08-25T22:09:32.312Z,100046.56
2022-08-25T22:12:35.255Z,100056.50
2022-08-25T22:15:38.318Z,100059.91
2022-08-25T22:18:42.244Z,100059.91
2022-08-25T22:21:45.211Z,100051.88
2022-08-25T22:24:48.121Z,100057.00
2022-08-25T22:27:56.445Z,100057.00
2022-08-25T22:31:04.775Z,100050.78
2022-08-25T22:34:11.748Z,100045.75
2022-08-25T22:37:17.907Z,100043.50
2022-08-25T22:40:20.912Z,100042.34
2022-08-25T22:43:24.149Z,100040.44
2022-08-25T22:46:30.333Z,100035.34
2022-08-25T22:49:35.643Z,100036.16
2022-08-25T22:52:38.708Z,100040.31
2022-08-25T22:55:45.100Z,100036.38
2022-08-25T22:58:51.835Z,100032.38
2022-08-25T23:01:55.497Z,100025.06
2022-08-25T23:05:00.890Z,100032.38
2022-08-25T23:08:04.082Z,100025.50
2022-08-25T23:11:10.953Z,100024.75
2022-08-25T23:14:13.786Z,100018.97
2022-08-25T23:17:19.166Z,100024.94
2022-08-25T23:20:54.012Z,100011.94
2022-08-25T23:23:57.541Z,100017.03
2022-08-25T23:27:04.841Z,100021.78
2022-08-25T23:30:08.732Z,100029.59
2022-08-25T23:33:15.317Z,100026.56
2022-08-25T23:36:22.127Z,100019.22
2022-08-25T23:39:25.330Z,100013.59
2022-08-25T23:42:29.638Z,100014.72
2022-08-25T23:45:32.353Z,100007.81
2022-08-25T23:48:35.630Z,100010.31
2022-08-25T23:51:38.662Z,100000.28
2022-08-25T23:54:41.584Z,100013.78
2022-08-25T23:57:45.326Z,100008.59
